Time;durP1;ratioP1;P1;durP2;ratioP2;P2;SDS_P1;SDS_P2;PMS_P1;PMS_P2;Temp;Humidity;BMP_temperature;BMP_pressure;BME280_temperature;BME280_humidity;BME280_pressure;Samples;Min_cycle;Max_cycle;Signal;HPM_P1;HPM_P2
2021/01/09 00:00:51;;;;;;;4.13;1.80;;;;;;;;;;5000170;28;20071;-79
2021/01/09 00:03:17;;;;;;;4.32;1.90;;;;;;;;;;5083349;28;20068;-81
2021/01/09 00:05:44;;;;;;;2.80;1.75;;;;;;;;;;5000651;28;20045;-79
2021/01/09 00:08:11;;;;;;;6.00;1.80;;;;;;;;;;4997204;28;20153;-80
2021/01/09 00:10:37;;;;;;;3.67;1.88;;;;;;;;;;5076295;28;20122;-80
2021/01/09 00:13:04;;;;;;;5.75;1.70;;;;;;;;;;4999850;28;20069;-80
2021/01/09 00:15:30;;;;;;;4.55;1.88;;;;;;;;;;4999880;28;20042;-81
2021/01/09 00:17:56;;;;;;;4.15;1.60;;;;;;;;;;5005531;28;20046;-81
2021/01/09 00:20:23;;;;;;;7.07;1.85;;;;;;;;;;5004617;28;20050;-83
2021/01/09 00:22:50;;;;;;;4.40;1.73;;;;;;;;;;5004193;28;20041;-81
2021/01/09 00:25:17;;;;;;;4.60;2.08;;;;;;;;;;5000629;28;20045;-83
2021/01/09 00:27:43;;;;;;;6.30;1.98;;;;;;;;;;5000706;28;20065;-82
2021/01/09 00:30:10;;;;;;;7.25;2.00;;;;;;;;;;5001002;28;20113;-80
2021/01/09 00:32:36;;;;;;;8.15;1.80;;;;;;;;;;5000105;28;20069;-79
2021/01/09 00:35:04;;;;;;;4.25;1.77;;;;;;;;;;5004490;28;20118;-84
2021/01/09 00:37:30;;;;;;;4.63;1.52;;;;;;;;;;5004411;28;20038;-77
2021/01/09 00:39:56;;;;;;;9.13;1.85;;;;;;;;;;5002754;28;20473;-79
2021/01/09 00:42:23;;;;;;;6.68;1.90;;;;;;;;;;5000499;28;20065;-83
2021/01/09 00:44:49;;;;;;;6.65;1.83;;;;;;;;;;5007422;28;20042;-78
2021/01/09 00:47:15;;;;;;;2.78;1.20;;;;;;;;;;5101490;27;20481;-78
2021/01/09 00:49:42;;;;;;;7.97;1.67;;;;;;;;;;5002542;28;20105;-80
2021/01/09 00:52:08;;;;;;;2.85;1.50;;;;;;;;;;5097569;27;20061;-82
2021/01/09 00:54:36;;;;;;;2.38;1.50;;;;;;;;;;5003564;28;20764;-85
2021/01/09 00:57:03;;;;;;;4.72;1.83;;;;;;;;;;5019184;28;20064;-84
2021/01/09 00:59:29;;;;;;;8.23;2.05;;;;;;;;;;5006510;28;20050;-78
2021/01/09 01:01:56;;;;;;;5.10;1.80;;;;;;;;;;5004599;28;20050;-81
2021/01/09 01:04:23;;;;;;;4.03;1.90;;;;;;;;;;5047156;28;20505;-81
2021/01/09 01:06:50;;;;;;;3.35;1.48;;;;;;;;;;5059912;28;20076;-84
2021/01/09 01:09:17;;;;;;;2.28;1.25;;;;;;;;;;5106981;27;20044;-84
2021/01/09 01:11:44;;;;;;;2.38;1.58;;;;;;;;;;5029666;27;20068;-85
2021/01/09 01:14:10;;;;;;;6.55;1.85;;;;;;;;;;5107171;27;20042;-83
2021/01/09 01:16:37;;;;;;;5.85;1.38;;;;;;;;;;5023880;28;20037;-85
2021/01/09 01:19:05;;;;;;;9.63;1.60;;;;;;;;;;5103379;27;20045;-82
2021/01/09 01:21:35;;;;;;;4.95;1.50;;;;;;;;;;5008040;28;20038;-85
2021/01/09 01:24:01;;;;;;;3.55;1.50;;;;;;;;;;5005269;28;20042;-81
2021/01/09 01:26:28;;;;;;;5.25;1.70;;;;;;;;;;5014397;28;20120;-82
2021/01/09 01:28:55;;;;;;;2.92;1.33;;;;;;;;;;5017235;28;20053;-82
2021/01/09 01:31:23;;;;;;;6.40;1.75;;;;;;;;;;5001679;28;20446;-83
2021/01/09 01:33:50;;;;;;;3.97;1.20;;;;;;;;;;5034852;27;20062;-85
2021/01/09 01:36:16;;;;;;;4.13;1.23;;;;;;;;;;5101649;27;20039;-80
2021/01/09 01:38:43;;;;;;;2.60;1.50;;;;;;;;;;5024335;28;20031;-83
2021/01/09 01:41:09;;;;;;;3.83;1.63;;;;;;;;;;5017885;28;20061;-85
2021/01/09 01:43:36;;;;;;;5.00;1.33;;;;;;;;;;5084922;28;20039;-86
2021/01/09 01:46:04;;;;;;;3.58;1.45;;;;;;;;;;5008880;28;20050;-84
2021/01/09 01:48:31;;;;;;;2.65;1.50;;;;;;;;;;4988869;28;20034;-82
2021/01/09 01:50:57;;;;;;;2.35;1.50;;;;;;;;;;5097173;27;20121;-86
2021/01/09 01:53:24;;;;;;;2.08;1.73;;;;;;;;;;5099688;27;20046;-85
2021/01/09 01:55:50;;;;;;;3.60;1.30;;;;;;;;;;5017553;28;20038;-82
2021/01/09 01:58:16;;;;;;;4.78;1.25;;;;;;;;;;5010827;28;20034;-80
2021/01/09 02:00:49;;;;;;;3.40;1.42;;;;;;;;;;5000816;28;20120;-85
2021/01/09 02:03:16;;;;;;;2.92;1.50;;;;;;;;;;5012720;28;20045;-82
2021/01/09 02:05:56;;;;;;;3.83;1.50;;;;;;;;;;5016983;28;20039;-82
2021/01/09 02:08:25;;;;;;;4.80;1.33;;;;;;;;;;5081527;28;20090;-83
2021/01/09 02:10:55;;;;;;;2.08;1.50;;;;;;;;;;5027703;28;20053;-81
2021/01/09 02:13:27;;;;;;;1.70;1.25;;;;;;;;;;5031597;28;20038;-86
2021/01/09 02:15:54;;;;;;;1.50;1.13;;;;;;;;;;5005368;28;20042;-84
2021/01/09 02:18:21;;;;;;;5.85;1.60;;;;;;;;;;5083601;28;20075;-84
2021/01/09 02:20:50;;;;;;;3.53;1.30;;;;;;;;;;5005923;28;20045;-82
2021/01/09 02:23:16;;;;;;;3.00;1.30;;;;;;;;;;5099650;27;20056;-82
2021/01/09 02:25:42;;;;;;;2.72;1.25;;;;;;;;;;5008583;28;20030;-82
2021/01/09 02:28:09;;;;;;;2.15;1.30;;;;;;;;;;5022872;28;20028;-83
2021/01/09 02:30:40;;;;;;;2.95;1.50;;;;;;;;;;5012290;28;20045;-82
2021/01/09 02:33:08;;;;;;;2.85;1.17;;;;;;;;;;5004684;28;20041;-85
2021/01/09 02:35:35;;;;;;;3.50;1.55;;;;;;;;;;5097547;27;20034;-84
2021/01/09 02:38:01;;;;;;;1.60;1.25;;;;;;;;;;5019399;28;20057;-83
2021/01/09 02:40:28;;;;;;;1.67;1.15;;;;;;;;;;5011740;28;20038;-87
2021/01/09 02:42:54;;;;;;;2.63;1.40;;;;;;;;;;5014806;28;20128;-82
2021/01/09 02:45:20;;;;;;;3.92;1.20;;;;;;;;;;5007067;28;20305;-82
2021/01/09 02:47:46;;;;;;;1.42;1.15;;;;;;;;;;5008748;28;20041;-80
2021/01/09 02:50:13;;;;;;;3.08;1.20;;;;;;;;;;5025824;28;20045;-80
2021/01/09 02:52:39;;;;;;;2.58;1.23;;;;;;;;;;5025958;28;20050;-81
2021/01/09 02:55:06;;;;;;;2.03;1.30;;;;;;;;;;5103593;27;20062;-82
2021/01/09 02:57:33;;;;;;;1.52;1.30;;;;;;;;;;5105088;27;20133;-84
2021/01/09 02:59:59;;;;;;;2.10;1.20;;;;;;;;;;4999480;28;20061;-81
2021/01/09 03:02:25;;;;;;;2.08;1.30;;;;;;;;;;5097767;27;20041;-85
2021/01/09 03:04:52;;;;;;;2.10;1.30;;;;;;;;;;5016883;28;20086;-86
2021/01/09 03:07:18;;;;;;;1.67;1.10;;;;;;;;;;5018162;28;20068;-83
2021/01/09 03:09:44;;;;;;;2.30;1.45;;;;;;;;;;5097208;27;20892;-83
2021/01/09 03:12:11;;;;;;;1.85;0.98;;;;;;;;;;5033123;27;20038;-84
2021/01/09 03:14:37;;;;;;;2.53;1.40;;;;;;;;;;5021563;28;20530;-86
2021/01/09 03:17:04;;;;;;;1.52;1.27;;;;;;;;;;5005142;28;20046;-81
2021/01/09 03:19:30;;;;;;;2.30;1.30;;;;;;;;;;5004464;28;20477;-81
2021/01/09 03:21:56;;;;;;;2.50;1.10;;;;;;;;;;5016136;28;20470;-83
2021/01/09 03:24:22;;;;;;;1.90;1.30;;;;;;;;;;5012700;28;20786;-80
2021/01/09 03:26:49;;;;;;;1.23;1.13;;;;;;;;;;5006438;28;20038;-80
2021/01/09 03:29:15;;;;;;;1.55;1.17;;;;;;;;;;5093781;27;20120;-82
2021/01/09 03:31:41;;;;;;;1.70;1.25;;;;;;;;;;5003233;28;20048;-79
2021/01/09 03:34:07;;;;;;;2.35;1.20;;;;;;;;;;5005525;28;20054;-80
2021/01/09 03:36:34;;;;;;;1.30;1.20;;;;;;;;;;5006464;28;20711;-78
2021/01/09 03:39:00;;;;;;;1.73;1.13;;;;;;;;;;5004381;28;20044;-80
2021/01/09 03:41:26;;;;;;;1.75;1.25;;;;;;;;;;5008921;28;20162;-80
2021/01/09 03:43:52;;;;;;;2.47;1.48;;;;;;;;;;5005925;28;20125;-80
2021/01/09 03:46:19;;;;;;;1.20;1.00;;;;;;;;;;5009422;28;20114;-80
2021/01/09 03:48:45;;;;;;;2.15;1.80;;;;;;;;;;5010694;28;20083;-80
2021/01/09 03:51:11;;;;;;;3.65;1.38;;;;;;;;;;4991324;28;20535;-81
2021/01/09 03:53:37;;;;;;;2.60;1.25;;;;;;;;;;5004885;28;20176;-83
2021/01/09 03:56:04;;;;;;;2.33;1.30;;;;;;;;;;5006887;28;20043;-85
2021/01/09 03:58:30;;;;;;;1.30;1.20;;;;;;;;;;5013842;28;20486;-79
2021/01/09 04:00:56;;;;;;;2.83;1.10;;;;;;;;;;5018487;28;20102;-79
2021/01/09 04:03:23;;;;;;;1.35;1.20;;;;;;;;;;5095716;27;20141;-81
2021/01/09 04:05:49;;;;;;;1.40;1.25;;;;;;;;;;5098686;27;20077;-83
2021/01/09 04:08:15;;;;;;;1.92;1.30;;;;;;;;;;5100258;27;20049;-84
2021/01/09 04:10:41;;;;;;;1.90;1.20;;;;;;;;;;5004662;28;20039;-83
2021/01/09 04:13:08;;;;;;;1.48;1.20;;;;;;;;;;5002145;28;20042;-83
2021/01/09 04:15:35;;;;;;;1.30;1.20;;;;;;;;;;5094916;28;20057;-84
2021/01/09 04:18:01;;;;;;;2.47;1.45;;;;;;;;;;5011283;28;20042;-85
2021/01/09 04:20:27;;;;;;;1.35;1.10;;;;;;;;;;5005353;28;20048;-80
2021/01/09 04:22:53;;;;;;;2.95;1.20;;;;;;;;;;5092400;28;20727;-81
2021/01/09 04:25:20;;;;;;;1.35;1.17;;;;;;;;;;5005683;28;20034;-83
2021/01/09 04:27:46;;;;;;;3.63;1.23;;;;;;;;;;5008349;28;20028;-85
2021/01/09 04:30:13;;;;;;;1.58;1.10;;;;;;;;;;5015319;28;20046;-81
2021/01/09 04:32:39;;;;;;;1.45;1.10;;;;;;;;;;5007223;28;20034;-86
2021/01/09 04:35:06;;;;;;;3.28;1.35;;;;;;;;;;5024114;28;20044;-87
2021/01/09 04:37:36;;;;;;;1.33;1.20;;;;;;;;;;5029575;28;20035;-82
2021/01/09 04:40:05;;;;;;;1.35;1.00;;;;;;;;;;5025136;28;20052;-80
2021/01/09 04:42:31;;;;;;;1.75;1.17;;;;;;;;;;5002873;28;21050;-78
2021/01/09 04:44:57;;;;;;;1.77;1.27;;;;;;;;;;5005015;28;20041;-82
2021/01/09 04:47:25;;;;;;;1.15;1.05;;;;;;;;;;5029385;28;20042;-80
2021/01/09 04:49:51;;;;;;;1.50;1.30;;;;;;;;;;5096736;28;20066;-80
2021/01/09 04:52:19;;;;;;;1.77;1.20;;;;;;;;;;5019325;28;20678;-80
2021/01/09 04:54:46;;;;;;;1.77;1.27;;;;;;;;;;5022387;28;20095;-82
2021/01/09 04:57:13;;;;;;;2.17;1.30;;;;;;;;;;5013925;28;20049;-82
2021/01/09 04:59:39;;;;;;;1.40;1.20;;;;;;;;;;5080516;28;20109;-84
2021/01/09 05:02:05;;;;;;;1.52;1.10;;;;;;;;;;5014039;28;21551;-80
2021/01/09 05:04:32;;;;;;;2.42;1.30;;;;;;;;;;5025763;28;20038;-81
2021/01/09 05:06:58;;;;;;;1.65;1.10;;;;;;;;;;5004166;28;20539;-80
2021/01/09 05:09:24;;;;;;;1.98;1.10;;;;;;;;;;5010881;28;20038;-83
2021/01/09 05:11:55;;;;;;;1.42;1.27;;;;;;;;;;5009060;28;20042;-84
2021/01/09 05:14:23;;;;;;;1.08;1.00;;;;;;;;;;5002356;28;20073;-81
2021/01/09 05:16:49;;;;;;;1.92;1.40;;;;;;;;;;5005095;28;20053;-82
2021/01/09 05:19:15;;;;;;;1.67;1.30;;;;;;;;;;5009683;28;20041;-80
2021/01/09 05:21:43;;;;;;;1.73;1.40;;;;;;;;;;5008514;28;20064;-80
2021/01/09 05:24:10;;;;;;;2.60;1.30;;;;;;;;;;5012265;28;20124;-81
2021/01/09 05:26:37;;;;;;;1.58;1.20;;;;;;;;;;5007519;28;20061;-79
2021/01/09 05:29:04;;;;;;;1.35;1.10;;;;;;;;;;5011112;28;20042;-82
2021/01/09 05:31:35;;;;;;;1.52;1.20;;;;;;;;;;5012139;28;20065;-82
2021/01/09 05:34:02;;;;;;;0.90;0.90;;;;;;;;;;5014295;28;20060;-82
2021/01/09 05:36:28;;;;;;;1.48;1.10;;;;;;;;;;5022828;28;20059;-82
2021/01/09 05:38:55;;;;;;;2.50;1.20;;;;;;;;;;5006398;28;20083;-82
2021/01/09 05:41:22;;;;;;;1.95;1.27;;;;;;;;;;5009131;28;20361;-81
2021/01/09 05:43:58;;;;;;;1.33;1.00;;;;;;;;;;4988687;28;21527;-79
2021/01/09 05:46:24;;;;;;;;;;;;;;;;;;5011784;28;20418;-80
2021/01/09 05:48:52;;;;;;;2.05;1.38;;;;;;;;;;5007682;28;20040;-81
2021/01/09 05:51:18;;;;;;;1.48;1.10;;;;;;;;;;5002982;28;20049;-82
2021/01/09 05:53:45;;;;;;;1.40;1.10;;;;;;;;;;4995231;28;20484;-83
2021/01/09 05:56:12;;;;;;;1.27;1.17;;;;;;;;;;4998113;28;20149;-79
2021/01/09 05:58:39;;;;;;;0.90;0.90;;;;;;;;;;5000887;28;20038;-83
2021/01/09 06:01:07;;;;;;;2.40;1.10;;;;;;;;;;5000254;28;20081;-79
2021/01/09 06:03:37;;;;;;;1.15;1.05;;;;;;;;;;5002470;28;20034;-81
2021/01/09 06:06:07;;;;;;;2.05;1.08;;;;;;;;;;5095163;27;20117;-84
2021/01/09 06:08:33;;;;;;;1.42;1.30;;;;;;;;;;5003241;28;20050;-80
2021/01/09 06:11:02;;;;;;;2.40;1.35;;;;;;;;;;5010538;28;20045;-84
2021/01/09 06:13:32;;;;;;;1.30;1.13;;;;;;;;;;5003609;28;20040;-82
2021/01/09 06:16:05;;;;;;;1.92;1.10;;;;;;;;;;5076665;28;21879;-79
2021/01/09 06:18:32;;;;;;;1.08;0.93;;;;;;;;;;5010779;28;20045;-79
2021/01/09 06:20:59;;;;;;;1.25;1.05;;;;;;;;;;5008075;28;20035;-79
2021/01/09 06:23:25;;;;;;;1.15;1.02;;;;;;;;;;5005046;28;20496;-79
2021/01/09 06:25:52;;;;;;;1.30;1.00;;;;;;;;;;5004206;28;20038;-81
2021/01/09 06:28:21;;;;;;;1.00;0.90;;;;;;;;;;5006372;28;20033;-82
2021/01/09 06:30:51;;;;;;;1.92;1.20;;;;;;;;;;5020083;28;20132;-80
2021/01/09 06:33:19;;;;;;;1.10;1.00;;;;;;;;;;5084696;27;20043;-81
2021/01/09 06:35:45;;;;;;;1.48;0.98;;;;;;;;;;5011008;28;20034;-80
2021/01/09 06:38:12;;;;;;;1.85;1.08;;;;;;;;;;5001531;27;20042;-80
2021/01/09 06:40:38;;;;;;;1.02;0.80;;;;;;;;;;5011451;28;20034;-81
2021/01/09 06:43:05;;;;;;;1.00;0.90;;;;;;;;;;5006052;28;20397;-82
2021/01/09 06:45:31;;;;;;;1.30;0.95;;;;;;;;;;5096126;27;20084;-80
2021/01/09 06:47:59;;;;;;;0.85;0.85;;;;;;;;;;5014541;28;20046;-83
2021/01/09 06:50:25;;;;;;;1.00;1.00;;;;;;;;;;5004663;28;20038;-82
2021/01/09 06:52:55;;;;;;;2.92;1.10;;;;;;;;;;5015921;28;20098;-85
2021/01/09 06:55:53;;;;;;;1.05;0.95;;;;;;;;;;5003175;28;20409;-81
2021/01/09 06:58:24;;;;;;;1.98;0.88;;;;;;;;;;5003224;28;20473;-85
2021/01/09 07:00:50;;;;;;;2.30;1.30;;;;;;;;;;5018695;28;20049;-84
2021/01/09 07:03:17;;;;;;;1.13;0.90;;;;;;;;;;5004044;28;20042;-83
2021/01/09 07:05:44;;;;;;;1.20;0.80;;;;;;;;;;5003036;28;20034;-83
2021/01/09 07:08:11;;;;;;;1.95;1.17;;;;;;;;;;5005029;28;20045;-82
2021/01/09 07:10:45;;;;;;;0.63;0.63;;;;;;;;;;5094817;27;20038;-82
2021/01/09 07:13:12;;;;;;;1.58;1.05;;;;;;;;;;5096996;27;20042;-85
2021/01/09 07:15:38;;;;;;;2.28;1.08;;;;;;;;;;5002915;28;20104;-80
2021/01/09 07:18:07;;;;;;;1.52;0.93;;;;;;;;;;5102888;27;20133;-85
2021/01/09 07:20:36;;;;;;;1.42;0.90;;;;;;;;;;5013203;28;21582;-81
2021/01/09 07:23:03;;;;;;;0.73;0.73;;;;;;;;;;5012471;28;20057;-80
2021/01/09 07:25:31;;;;;;;1.13;1.02;;;;;;;;;;5007233;28;20523;-82
2021/01/09 07:27:58;;;;;;;1.33;0.90;;;;;;;;;;5009663;28;20046;-80
2021/01/09 07:30:26;;;;;;;1.77;1.10;;;;;;;;;;5011792;28;20710;-85
2021/01/09 07:32:53;;;;;;;2.13;0.95;;;;;;;;;;5008306;28;20030;-82
2021/01/09 07:35:25;;;;;;;2.35;1.00;;;;;;;;;;5088113;28;20419;-82
2021/01/09 07:37:53;;;;;;;0.98;0.70;;;;;;;;;;5008684;28;20095;-85
2021/01/09 07:40:20;;;;;;;0.60;0.60;;;;;;;;;;5009869;28;20033;-85
2021/01/09 07:42:47;;;;;;;1.95;0.93;;;;;;;;;;5097830;27;20070;-84
2021/01/09 07:45:16;;;;;;;0.75;0.75;;;;;;;;;;5003011;28;20045;-81
2021/01/09 07:47:43;;;;;;;1.77;0.80;;;;;;;;;;5024034;28;20044;-85
2021/01/09 07:50:10;;;;;;;1.20;0.80;;;;;;;;;;5017496;28;20034;-87
2021/01/09 07:52:37;;;;;;;1.02;0.82;;;;;;;;;;5012466;28;20060;-83
2021/01/09 07:55:04;;;;;;;1.15;0.82;;;;;;;;;;5025390;28;20118;-83
2021/01/09 07:57:32;;;;;;;1.10;0.77;;;;;;;;;;5007625;28;20066;-82
2021/01/09 08:00:01;;;;;;;1.90;1.00;;;;;;;;;;5015715;28;20049;-83
2021/01/09 08:02:28;;;;;;;1.10;0.82;;;;;;;;;;5074694;28;20042;-85
2021/01/09 08:05:12;;;;;;;1.25;1.00;;;;;;;;;;5017304;28;20033;-86
2021/01/09 08:07:40;;;;;;;1.30;0.82;;;;;;;;;;4990095;28;20123;-86
2021/01/09 08:10:14;;;;;;;1.83;0.80;;;;;;;;;;4999619;28;20052;-85
2021/01/09 08:12:40;;;;;;;1.42;0.90;;;;;;;;;;5089006;28;20046;-86
2021/01/09 08:15:07;;;;;;;1.63;1.10;;;;;;;;;;5004760;28;20069;-84
2021/01/09 08:17:33;;;;;;;1.08;0.80;;;;;;;;;;5100892;27;20063;-83
2021/01/09 08:20:06;;;;;;;1.30;0.82;;;;;;;;;;5004263;28;20046;-82
2021/01/09 08:22:32;;;;;;;2.03;0.90;;;;;;;;;;5093596;28;20038;-83
2021/01/09 08:25:08;;;;;;;0.82;0.70;;;;;;;;;;4981124;28;21639;-81
2021/01/09 08:27:41;;;;;;;0.85;0.77;;;;;;;;;;5001716;28;20100;-86
2021/01/09 08:30:09;;;;;;;0.80;0.75;;;;;;;;;;5085116;28;20148;-83
2021/01/09 08:32:36;;;;;;;0.82;0.80;;;;;;;;;;4999665;28;20038;-82
2021/01/09 08:35:02;;;;;;;0.75;0.75;;;;;;;;;;5016754;28;20139;-81
2021/01/09 08:37:30;;;;;;;2.35;1.05;;;;;;;;;;5079745;28;20479;-77
2021/01/09 08:39:57;;;;;;;6.68;1.10;;;;;;;;;;5095298;28;20041;-78
2021/01/09 08:42:23;;;;;;;3.90;1.23;;;;;;;;;;5006646;28;20083;-80
2021/01/09 08:44:51;;;;;;;5.57;1.20;;;;;;;;;;4994759;28;20528;-76
2021/01/09 08:47:19;;;;;;;6.85;1.55;;;;;;;;;;5001311;28;20038;-84
2021/01/09 08:49:45;;;;;;;6.40;1.23;;;;;;;;;;5101981;28;20450;-78
2021/01/09 08:52:13;;;;;;;8.82;1.20;;;;;;;;;;5018251;28;20046;-76
2021/01/09 08:54:40;;;;;;;8.27;1.30;;;;;;;;;;5003281;28;20071;-78
2021/01/09 08:57:07;;;;;;;6.32;1.35;;;;;;;;;;5086424;28;20473;-77
2021/01/09 08:59:34;;;;;;;3.63;1.10;;;;;;;;;;4995324;28;20039;-75
2021/01/09 09:02:02;;;;;;;6.10;1.20;;;;;;;;;;5006829;28;20038;-78
2021/01/09 09:04:28;;;;;;;5.85;1.27;;;;;;;;;;4996311;28;20034;-80
2021/01/09 09:06:58;;;;;;;6.15;1.40;;;;;;;;;;5005052;28;20099;-80
2021/01/09 09:09:27;;;;;;;7.78;1.52;;;;;;;;;;4995726;28;20046;-79
2021/01/09 09:11:54;;;;;;;8.15;1.83;;;;;;;;;;5006688;28;20034;-79
2021/01/09 09:14:20;;;;;;;11.52;2.38;;;;;;;;;;5005479;28;20378;-80
2021/01/09 09:16:56;;;;;;;15.10;2.65;;;;;;;;;;5098102;27;20038;-78
2021/01/09 09:19:23;;;;;;;15.27;3.72;;;;;;;;;;5001948;28;20100;-83
2021/01/09 09:21:56;;;;;;;12.32;2.25;;;;;;;;;;5005950;28;20038;-82
2021/01/09 09:24:37;;;;;;;17.25;2.63;;;;;;;;;;5020682;28;20538;-82
2021/01/09 09:27:03;;;;;;;25.08;3.00;;;;;;;;;;5006196;28;20046;-80
2021/01/09 09:29:32;;;;;;;17.00;2.92;;;;;;;;;;5005495;28;20092;-79
2021/01/09 09:31:59;;;;;;;10.70;2.80;;;;;;;;;;5097512;27;20076;-79
2021/01/09 09:34:28;;;;;;;15.85;3.10;;;;;;;;;;5000743;28;20042;-77
2021/01/09 09:36:55;;;;;;;19.35;2.58;;;;;;;;;;5008419;28;20094;-78
2021/01/09 09:39:22;;;;;;;23.23;2.45;;;;;;;;;;5004569;28;20042;-80
2021/01/09 09:41:51;;;;;;;14.75;3.10;;;;;;;;;;5002621;28;20158;-75
2021/01/09 09:44:18;;;;;;;21.27;3.05;;;;;;;;;;5001356;28;20046;-78
2021/01/09 09:46:44;;;;;;;16.98;2.88;;;;;;;;;;4980965;28;20191;-74
2021/01/09 09:49:11;;;;;;;13.70;2.60;;;;;;;;;;5002908;28;20030;-81
2021/01/09 09:51:38;;;;;;;13.38;2.75;;;;;;;;;;5003667;28;20038;-75
2021/01/09 09:54:05;;;;;;;9.57;2.00;;;;;;;;;;5003593;28;20038;-73
2021/01/09 09:56:39;;;;;;;9.82;2.28;;;;;;;;;;4999990;28;20126;-71
2021/01/09 09:59:07;;;;;;;12.93;2.97;;;;;;;;;;5002291;28;20477;-81
2021/01/09 10:01:35;;;;;;;14.73;2.60;;;;;;;;;;5003045;28;20045;-86
2021/01/09 10:04:02;;;;;;;15.90;2.92;;;;;;;;;;5002171;28;20152;-79
2021/01/09 10:06:35;;;;;;;10.63;2.40;;;;;;;;;;5000007;28;20038;-77
2021/01/09 10:09:12;;;;;;;6.20;2.20;;;;;;;;;;4994509;28;20038;-78
2021/01/09 10:11:39;;;;;;;7.57;2.38;;;;;;;;;;5070737;28;20436;-78
2021/01/09 10:14:05;;;;;;;14.15;2.50;;;;;;;;;;4988111;28;20042;-78
2021/01/09 10:16:32;;;;;;;13.00;2.83;;;;;;;;;;4988047;28;20046;-76
2021/01/09 10:18:59;;;;;;;7.05;1.88;;;;;;;;;;4987371;28;20049;-79
2021/01/09 10:21:27;;;;;;;7.68;2.08;;;;;;;;;;5089499;28;20099;-78
2021/01/09 10:23:54;;;;;;;9.18;2.33;;;;;;;;;;4989212;28;20541;-77
2021/01/09 10:26:26;;;;;;;9.25;2.88;;;;;;;;;;4988102;28;20046;-77
2021/01/09 10:28:52;;;;;;;8.63;2.13;;;;;;;;;;4988943;28;20465;-77
2021/01/09 10:31:19;;;;;;;6.35;2.08;;;;;;;;;;4986469;28;20064;-77
2021/01/09 10:33:45;;;;;;;7.90;2.53;;;;;;;;;;4988337;28;20046;-78
2021/01/09 10:36:11;;;;;;;8.00;1.95;;;;;;;;;;4989278;28;20038;-78
2021/01/09 10:38:37;;;;;;;8.38;2.03;;;;;;;;;;4988712;28;20051;-78
2021/01/09 10:41:04;;;;;;;5.95;2.03;;;;;;;;;;4987975;28;20375;-77
2021/01/09 10:43:30;;;;;;;7.78;2.42;;;;;;;;;;4989311;28;20103;-77
2021/01/09 10:45:56;;;;;;;5.47;2.15;;;;;;;;;;4988159;28;20061;-76
2021/01/09 10:48:22;;;;;;;6.47;1.85;;;;;;;;;;4988296;28;20042;-77
2021/01/09 10:50:49;;;;;;;10.63;2.05;;;;;;;;;;4989119;28;20046;-76
2021/01/09 10:53:15;;;;;;;4.28;1.80;;;;;;;;;;4988860;28;20058;-77
2021/01/09 10:55:41;;;;;;;7.18;1.98;;;;;;;;;;4987465;28;20038;-77
2021/01/09 10:58:08;;;;;;;5.00;2.15;;;;;;;;;;5089088;28;20421;-78
2021/01/09 11:00:34;;;;;;;5.95;2.03;;;;;;;;;;5070415;28;20062;-77
2021/01/09 11:03:00;;;;;;;7.75;2.33;;;;;;;;;;4988798;28;20507;-77
2021/01/09 11:05:30;;;;;;;8.50;1.92;;;;;;;;;;4988590;28;20138;-77
2021/01/09 11:07:56;;;;;;;5.63;2.13;;;;;;;;;;5068498;28;20038;-78
2021/01/09 11:10:22;;;;;;;3.80;1.63;;;;;;;;;;5088059;28;20453;-78
2021/01/09 11:12:49;;;;;;;4.18;1.98;;;;;;;;;;5088674;28;20042;-76
2021/01/09 11:15:15;;;;;;;5.38;2.30;;;;;;;;;;4987348;28;20072;-76
2021/01/09 11:17:41;;;;;;;5.00;2.20;;;;;;;;;;4988511;28;20039;-77
2021/01/09 11:20:08;;;;;;;7.95;2.05;;;;;;;;;;4987123;28;20043;-76
2021/01/09 11:22:34;;;;;;;6.43;1.80;;;;;;;;;;4987515;28;20042;-78
2021/01/09 11:25:01;;;;;;;6.00;1.98;;;;;;;;;;4986672;28;20125;-78
2021/01/09 11:27:27;;;;;;;4.43;1.88;;;;;;;;;;4988954;28;20038;-77
2021/01/09 11:29:53;;;;;;;5.25;2.13;;;;;;;;;;5083190;28;20137;-77
2021/01/09 11:32:20;;;;;;;8.70;2.42;;;;;;;;;;5008125;28;20050;-77
2021/01/09 11:34:46;;;;;;;6.50;1.95;;;;;;;;;;5007798;28;20473;-77
2021/01/09 11:37:12;;;;;;;7.00;1.73;;;;;;;;;;5005706;28;20493;-78
2021/01/09 11:39:39;;;;;;;6.95;2.55;;;;;;;;;;4989650;28;20049;-78
2021/01/09 11:42:07;;;;;;;5.00;2.35;;;;;;;;;;5006272;28;20053;-78
2021/01/09 11:44:33;;;;;;;4.82;1.80;;;;;;;;;;5006040;28;20046;-78
2021/01/09 11:46:59;;;;;;;6.40;1.85;;;;;;;;;;5007303;28;20075;-78
2021/01/09 11:49:27;;;;;;;4.80;1.88;;;;;;;;;;5007582;28;20192;-78
2021/01/09 11:51:54;;;;;;;6.00;2.47;;;;;;;;;;5005240;28;20066;-78
2021/01/09 11:54:21;;;;;;;4.45;2.20;;;;;;;;;;5007578;28;20049;-78
2021/01/09 11:56:47;;;;;;;7.70;1.90;;;;;;;;;;5004863;28;20095;-78
2021/01/09 11:59:13;;;;;;;3.80;1.80;;;;;;;;;;5007398;28;20053;-78
2021/01/09 12:01:39;;;;;;;7.22;2.22;;;;;;;;;;5005743;28;20037;-78
2021/01/09 12:04:06;;;;;;;5.03;1.88;;;;;;;;;;5007094;28;20038;-79
2021/01/09 12:06:32;;;;;;;4.88;1.63;;;;;;;;;;5006885;28;20474;-77
2021/01/09 12:08:59;;;;;;;3.88;1.67;;;;;;;;;;5006382;28;20046;-79
2021/01/09 12:11:25;;;;;;;4.50;1.88;;;;;;;;;;5004848;28;20091;-78
2021/01/09 12:13:52;;;;;;;2.90;1.60;;;;;;;;;;5007062;28;20489;-79
2021/01/09 12:16:26;;;;;;;3.55;1.65;;;;;;;;;;5006842;28;20091;-79
2021/01/09 12:18:52;;;;;;;2.95;1.73;;;;;;;;;;5005336;28;20038;-79
2021/01/09 12:21:19;;;;;;;3.85;1.90;;;;;;;;;;5005958;28;20057;-79
2021/01/09 12:23:45;;;;;;;4.95;1.67;;;;;;;;;;5006223;28;20128;-78
2021/01/09 12:26:16;;;;;;;3.45;1.55;;;;;;;;;;4988533;28;20053;-78
2021/01/09 12:28:42;;;;;;;3.50;1.73;;;;;;;;;;4989981;28;20037;-79
2021/01/09 12:31:09;;;;;;;3.78;1.75;;;;;;;;;;5007395;28;20087;-78
2021/01/09 12:33:35;;;;;;;4.88;1.70;;;;;;;;;;5010119;28;20067;-78
2021/01/09 12:36:01;;;;;;;4.03;1.42;;;;;;;;;;5010703;28;20042;-79
2021/01/09 12:38:28;;;;;;;3.08;1.52;;;;;;;;;;5010857;28;20061;-79
2021/01/09 12:40:54;;;;;;;4.10;1.63;;;;;;;;;;5007821;28;20042;-78
2021/01/09 12:43:20;;;;;;;3.22;1.67;;;;;;;;;;5009528;28;20041;-78
2021/01/09 12:45:47;;;;;;;3.85;1.60;;;;;;;;;;5007552;28;20154;-79
2021/01/09 12:48:13;;;;;;;3.95;1.52;;;;;;;;;;5010133;28;20041;-77
2021/01/09 12:50:43;;;;;;;4.50;1.60;;;;;;;;;;5010274;28;20038;-78
2021/01/09 12:53:10;;;;;;;2.95;1.50;;;;;;;;;;5007957;28;20053;-78
2021/01/09 12:55:37;;;;;;;3.67;1.58;;;;;;;;;;5008075;28;20069;-78
2021/01/09 12:58:03;;;;;;;5.20;1.70;;;;;;;;;;5008880;28;20510;-79
2021/01/09 13:00:32;;;;;;;4.05;1.42;;;;;;;;;;5008368;28;20121;-78
2021/01/09 13:02:58;;;;;;;5.47;1.42;;;;;;;;;;5010478;28;20038;-79
2021/01/09 13:05:25;;;;;;;4.90;1.88;;;;;;;;;;5008434;28;20038;-78
2021/01/09 13:07:51;;;;;;;2.03;1.25;;;;;;;;;;5007291;28;20042;-77
2021/01/09 13:10:17;;;;;;;3.15;1.63;;;;;;;;;;5008263;28;20042;-77
2021/01/09 13:12:44;;;;;;;4.55;1.65;;;;;;;;;;5009699;28;20030;-77
2021/01/09 13:15:10;;;;;;;2.10;1.30;;;;;;;;;;5008466;28;20095;-78
2021/01/09 13:17:36;;;;;;;3.17;1.20;;;;;;;;;;5008156;28;20116;-76
2021/01/09 13:20:03;;;;;;;4.57;1.52;;;;;;;;;;5010013;28;20042;-77
2021/01/09 13:22:29;;;;;;;3.85;2.00;;;;;;;;;;5007429;28;20500;-76
2021/01/09 13:24:56;;;;;;;3.65;1.63;;;;;;;;;;5007567;28;20045;-76
2021/01/09 13:27:23;;;;;;;2.75;1.27;;;;;;;;;;4992061;28;20369;-78
2021/01/09 13:29:49;;;;;;;5.07;1.63;;;;;;;;;;5006775;28;20099;-78
2021/01/09 13:32:22;;;;;;;4.10;1.45;;;;;;;;;;5008996;28;20416;-77
2021/01/09 13:34:49;;;;;;;1.60;1.30;;;;;;;;;;5008069;28;20121;-78
2021/01/09 13:37:15;;;;;;;3.83;1.40;;;;;;;;;;5008635;28;20462;-77
2021/01/09 13:39:42;;;;;;;4.22;1.48;;;;;;;;;;5008767;28;20073;-78
2021/01/09 13:42:08;;;;;;;2.15;1.23;;;;;;;;;;5009089;28;20046;-77
2021/01/09 13:44:35;;;;;;;2.90;1.33;;;;;;;;;;5005593;28;20458;-77
2021/01/09 13:47:01;;;;;;;3.28;1.35;;;;;;;;;;5007552;28;20114;-78
2021/01/09 13:49:27;;;;;;;2.22;1.23;;;;;;;;;;5008499;28;20041;-76
2021/01/09 13:51:53;;;;;;;1.98;1.02;;;;;;;;;;5007242;28;20049;-78
2021/01/09 13:54:20;;;;;;;3.17;1.50;;;;;;;;;;4991747;28;20466;-79
2021/01/09 13:56:47;;;;;;;3.38;1.65;;;;;;;;;;5007346;28;20061;-77
2021/01/09 13:59:15;;;;;;;3.75;1.50;;;;;;;;;;5008808;28;20064;-76
2021/01/09 14:01:41;;;;;;;3.03;1.30;;;;;;;;;;5008689;28;20119;-77
2021/01/09 14:04:08;;;;;;;3.47;1.10;;;;;;;;;;5008480;28;20042;-79
2021/01/09 14:06:34;;;;;;;3.08;1.20;;;;;;;;;;5007811;28;20052;-77
2021/01/09 14:09:01;;;;;;;2.40;1.05;;;;;;;;;;5008798;28;20046;-76
2021/01/09 14:11:28;;;;;;;2.30;1.25;;;;;;;;;;5006667;28;20129;-77
2021/01/09 14:13:55;;;;;;;2.63;1.10;;;;;;;;;;5009058;28;20118;-78
2021/01/09 14:16:22;;;;;;;2.88;1.08;;;;;;;;;;5008159;28;20367;-78
2021/01/09 14:18:48;;;;;;;1.45;1.08;;;;;;;;;;4990408;28;20515;-78
2021/01/09 14:21:15;;;;;;;2.47;1.60;;;;;;;;;;5009010;28;20041;-78
2021/01/09 14:23:41;;;;;;;3.53;1.30;;;;;;;;;;5008793;28;20077;-77
2021/01/09 14:26:08;;;;;;;2.42;1.25;;;;;;;;;;5007259;28;20466;-77
2021/01/09 14:28:35;;;;;;;1.67;1.15;;;;;;;;;;5008510;28;20418;-79
2021/01/09 14:31:02;;;;;;;1.83;1.10;;;;;;;;;;4990447;28;20044;-79
2021/01/09 14:33:29;;;;;;;2.65;1.25;;;;;;;;;;4990702;28;20061;-77
2021/01/09 14:35:55;;;;;;;4.22;1.30;;;;;;;;;;5007127;28;20121;-77
2021/01/09 14:38:22;;;;;;;2.60;1.48;;;;;;;;;;4991132;28;20209;-79
2021/01/09 14:40:49;;;;;;;2.30;1.17;;;;;;;;;;4989535;28;20406;-76
2021/01/09 14:43:16;;;;;;;2.38;1.13;;;;;;;;;;5008912;28;20137;-77